sensor_id;sensor_type;location;lat;lon;timestamp;pressure;altitude;pressure_sealevel;temperature;humidity
74218;BME280;62579;47.288;18.646;2024-02-21T00:01:52;100763.53;;;7.04;100.00
74218;BME280;62579;47.288;18.646;2024-02-21T00:04:17;100754.06;;;7.09;100.00
74218;BME280;62579;47.288;18.646;2024-02-21T00:06:42;100754.19;;;7.05;100.00
74218;BME280;62579;47.288;18.646;2024-02-21T00:09:08;100750.59;;;7.08;100.00
74218;BME280;62579;47.288;18.646;2024-02-21T00:11:34;100746.09;;;7.05;100.00
74218;BME280;62579;47.288;18.646;2024-02-21T00:14:00;100748.47;;;6.94;100.00
74218;BME280;62579;47.288;18.646;2024-02-21T00:16:25;100741.25;;;6.91;100.00
74218;BME280;62579;47.288;18.646;2024-02-21T00:18:51;100741.41;;;6.88;100.00
74218;BME280;62579;47.288;18.646;2024-02-21T00:21:16;100744.88;;;6.97;100.00
74218;BME280;62579;47.288;18.646;2024-02-21T00:23:44;100736.59;;;7.01;100.00
74218;BME280;62579;47.288;18.646;2024-02-21T00:26:14;100731.66;;;7.08;100.00
74218;BME280;62579;47.288;18.646;2024-02-21T00:28:39;100723.84;;;7.01;100.00
74218;BME280;62579;47.288;18.646;2024-02-21T00:31:04;100723.69;;;6.96;100.00
74218;BME280;62579;47.288;18.646;2024-02-21T00:33:30;100717.66;;;7.01;100.00
74218;BME280;62579;47.288;18.646;2024-02-21T00:35:55;100712.25;;;7.01;100.00
74218;BME280;62579;47.288;18.646;2024-02-21T00:38:21;100717.66;;;7.01;100.00
74218;BME280;62579;47.288;18.646;2024-02-21T00:40:46;100706.84;;;7.10;100.00
74218;BME280;62579;47.288;18.646;2024-02-21T00:43:11;100709.25;;;7.08;100.00
74218;BME280;62579;47.288;18.646;2024-02-21T00:45:37;100702.94;;;7.02;100.00
74218;BME280;62579;47.288;18.646;2024-02-21T00:48:02;100705.63;;;6.93;100.00
74218;BME280;62579;47.288;18.646;2024-02-21T00:50:28;100700.38;;;6.98;100.00
74218;BME280;62579;47.288;18.646;2024-02-21T00:52:53;100703.84;;;6.99;100.00
74218;BME280;62579;47.288;18.646;2024-02-21T00:55:18;100697.81;;;6.95;100.00
74218;BME280;62579;47.288;18.646;2024-02-21T00:57:44;100700.97;;;6.93;100.00
74218;BME280;62579;47.288;18.646;2024-02-21T01:00:09;100693.47;;;6.88;100.00
74218;BME280;62579;47.288;18.646;2024-02-21T01:02:35;100693.00;;;6.99;100.00
74218;BME280;62579;47.288;18.646;2024-02-21T01:05:02;100687.28;;;6.88;100.00
74218;BME280;62579;47.288;18.646;2024-02-21T01:07:27;100681.09;;;6.78;100.00
74218;BME280;62579;47.288;18.646;2024-02-21T01:09:52;100674.66;;;6.85;100.00
74218;BME280;62579;47.288;18.646;2024-02-21T01:12:18;100672.41;;;6.92;100.00
74218;BME280;62579;47.288;18.646;2024-02-21T01:14:44;100682.91;;;6.81;100.00
74218;BME280;62579;47.288;18.646;2024-02-21T01:17:11;100682.47;;;6.83;100.00
74218;BME280;62579;47.288;18.646;2024-02-21T01:19:36;100681.72;;;6.91;100.00
74218;BME280;62579;47.288;18.646;2024-02-21T01:22:01;100676.47;;;6.97;100.00
74218;BME280;62579;47.288;18.646;2024-02-21T01:24:27;100682.94;;;6.90;100.00
74218;BME280;62579;47.288;18.646;2024-02-21T01:26:52;100671.66;;;6.83;100.00
74218;BME280;62579;47.288;18.646;2024-02-21T01:29:17;100674.66;;;6.85;100.00
74218;BME280;62579;47.288;18.646;2024-02-21T01:31:43;100668.34;;;6.97;100.00
74218;BME280;62579;47.288;18.646;2024-02-21T01:34:08;100674.97;;;6.96;100.00
74218;BME280;62579;47.288;18.646;2024-02-21T01:36:34;100678.59;;;7.02;100.00
74218;BME280;62579;47.288;18.646;2024-02-21T01:38:59;100672.72;;;7.03;100.00
74218;BME280;62579;47.288;18.646;2024-02-21T01:41:25;100674.06;;;6.99;100.00
74218;BME280;62579;47.288;18.646;2024-02-21T01:43:50;100677.84;;;7.01;100.00
74218;BME280;62579;47.288;18.646;2024-02-21T01:46:16;100674.06;;;6.99;100.00
74218;BME280;62579;47.288;18.646;2024-02-21T01:48:41;100677.22;;;6.97;100.00
74218;BME280;62579;47.288;18.646;2024-02-21T01:51:07;100672.13;;;6.90;100.00
74218;BME280;62579;47.288;18.646;2024-02-21T01:53:38;100676.31;;;7.00;100.00
74218;BME280;62579;47.288;18.646;2024-02-21T01:56:05;100676.16;;;6.95;100.00
74218;BME280;62579;47.288;18.646;2024-02-21T01:58:32;100677.50;;;6.99;100.00
74218;BME280;62579;47.288;18.646;2024-02-21T02:00:59;100676.91;;;6.95;100.00
74218;BME280;62579;47.288;18.646;2024-02-21T02:03:24;100676.31;;;7.00;100.00
74218;BME280;62579;47.288;18.646;2024-02-21T02:05:50;100684.16;;;6.98;100.00
74218;BME280;62579;47.288;18.646;2024-02-21T02:08:18;100679.50;;;6.99;100.00
74218;BME280;62579;47.288;18.646;2024-02-21T02:10:44;100679.78;;;7.01;100.00
74218;BME280;62579;47.288;18.646;2024-02-21T02:13:10;100673.75;;;6.97;100.00
74218;BME280;62579;47.288;18.646;2024-02-21T02:15:39;100670.16;;;7.00;100.00
74218;BME280;62579;47.288;18.646;2024-02-21T02:18:04;100668.97;;;6.83;100.00
74218;BME280;62579;47.288;18.646;2024-02-21T02:20:30;100664.00;;;6.90;100.00
74218;BME280;62579;47.288;18.646;2024-02-21T02:22:55;100660.22;;;6.97;100.00
74218;BME280;62579;47.288;18.646;2024-02-21T02:25:21;100650.91;;;6.80;100.00
74218;BME280;62579;47.288;18.646;2024-02-21T02:27:47;100651.06;;;6.76;100.00
74218;BME280;62579;47.288;18.646;2024-02-21T02:30:12;100648.06;;;6.74;100.00
74218;BME280;62579;47.288;18.646;2024-02-21T02:32:37;100650.16;;;6.79;100.00
74218;BME280;62579;47.288;18.646;2024-02-21T02:35:03;100651.97;;;6.82;100.00
74218;BME280;62579;47.288;18.646;2024-02-21T02:37:29;100649.88;;;6.77;100.00
74218;BME280;62579;47.288;18.646;2024-02-21T02:39:54;100647.59;;;6.76;100.00
74218;BME280;62579;47.288;18.646;2024-02-21T02:42:20;100654.81;;;6.79;100.00
74218;BME280;62579;47.288;18.646;2024-02-21T02:44:45;100648.94;;;6.71;100.00
74218;BME280;62579;47.288;18.646;2024-02-21T02:47:10;100650.03;;;6.83;100.00
74218;BME280;62579;47.288;18.646;2024-02-21T02:49:36;100660.09;;;6.82;100.00
74218;BME280;62579;47.288;18.646;2024-02-21T02:52:01;100655.72;;;6.76;100.00
74218;BME280;62579;47.288;18.646;2024-02-21T02:54:27;100660.66;;;6.86;100.00
74218;BME280;62579;47.288;18.646;2024-02-21T02:56:52;100649.88;;;6.77;100.00
74218;BME280;62579;47.288;18.646;2024-02-21T02:59:18;100658.72;;;6.69;100.00
74218;BME280;62579;47.288;18.646;2024-02-21T03:01:43;100656.47;;;6.76;100.00
74218;BME280;62579;47.288;18.646;2024-02-21T03:04:08;100661.84;;;6.67;100.00
74218;BME280;62579;47.288;18.646;2024-02-21T03:06:35;100653.44;;;6.65;100.00
74218;BME280;62579;47.288;18.646;2024-02-21T03:09:00;100662.34;;;6.75;100.00
74218;BME280;62579;47.288;18.646;2024-02-21T03:11:26;100662.62;;;6.68;100.00
74218;BME280;62579;47.288;18.646;2024-02-21T03:13:55;100664.13;;;6.69;100.00
74218;BME280;62579;47.288;18.646;2024-02-21T03:16:21;100659.31;;;6.63;100.00
74218;BME280;62579;47.288;18.646;2024-02-21T03:18:47;100652.56;;;6.68;100.00
74218;BME280;62579;47.288;18.646;2024-02-21T03:21:12;100648.81;;;6.75;100.00
74218;BME280;62579;47.288;18.646;2024-02-21T03:23:38;100649.25;;;6.73;100.00
74218;BME280;62579;47.288;18.646;2024-02-21T03:26:03;100651.94;;;6.73;100.00
74218;BME280;62579;47.288;18.646;2024-02-21T03:28:28;100654.06;;;6.69;100.00
74218;BME280;62579;47.288;18.646;2024-02-21T03:30:54;100649.84;;;6.68;100.00
74218;BME280;62579;47.288;18.646;2024-02-21T03:33:19;100651.34;;;6.60;100.00
74218;BME280;62579;47.288;18.646;2024-02-21T03:35:46;100654.78;;;6.51;100.00
74218;BME280;62579;47.288;18.646;2024-02-21T03:38:11;100653.28;;;6.59;100.00
74218;BME280;62579;47.288;18.646;2024-02-21T03:40:36;100652.84;;;6.61;100.00
74218;BME280;62579;47.288;18.646;2024-02-21T03:43:01;100657.66;;;6.66;100.00
74218;BME280;62579;47.288;18.646;2024-02-21T03:45:27;100666.06;;;6.68;100.00
74218;BME280;62579;47.288;18.646;2024-02-21T03:47:52;100667.13;;;6.61;100.00
74218;BME280;62579;47.288;18.646;2024-02-21T03:50:17;100666.53;;;6.67;100.00
74218;BME280;62579;47.288;18.646;2024-02-21T03:52:43;100672.09;;;6.63;100.00
74218;BME280;62579;47.288;18.646;2024-02-21T03:55:08;100674.66;;;6.67;100.00
74218;BME280;62579;47.288;18.646;2024-02-21T03:57:34;100671.19;;;6.75;100.00
74218;BME280;62579;47.288;18.646;2024-02-21T03:59:59;100662.34;;;6.75;100.00
74218;BME280;62579;47.288;18.646;2024-02-21T04:02:24;100668.78;;;6.68;100.00
74218;BME280;62579;47.288;18.646;2024-02-21T04:04:50;100673.59;;;6.73;100.00
74218;BME280;62579;47.288;18.646;2024-02-21T04:07:15;100667.59;;;6.69;100.00
74218;BME280;62579;47.288;18.646;2024-02-21T04:09:40;100667.28;;;6.76;100.00
74218;BME280;62579;47.288;18.646;2024-02-21T04:12:08;100671.78;;;6.70;100.00
74218;BME280;62579;47.288;18.646;2024-02-21T04:14:33;100664.88;;;6.60;100.00
74218;BME280;62579;47.288;18.646;2024-02-21T04:16:59;100662.31;;;6.65;100.00
74218;BME280;62579;47.288;18.646;2024-02-21T04:19:25;100675.09;;;6.74;100.00
74218;BME280;62579;47.288;18.646;2024-02-21T04:21:50;100666.69;;;6.72;100.00
74218;BME280;62579;47.288;18.646;2024-02-21T04:24:15;100668.34;;;6.70;100.00
74218;BME280;62579;47.288;18.646;2024-02-21T04:26:41;100665.78;;;6.75;100.00
74218;BME280;62579;47.288;18.646;2024-02-21T04:29:06;100665.03;;;6.75;100.00
74218;BME280;62579;47.288;18.646;2024-02-21T04:31:32;100666.38;;;6.70;100.00
74218;BME280;62579;47.288;18.646;2024-02-21T04:33:57;100660.66;;;6.68;100.00
74218;BME280;62579;47.288;18.646;2024-02-21T04:36:22;100660.66;;;6.68;100.00
74218;BME280;62579;47.288;18.646;2024-02-21T04:38:49;100666.22;;;6.64;100.00
74218;BME280;62579;47.288;18.646;2024-02-21T04:41:15;100651.03;;;6.58;100.00
74218;BME280;62579;47.288;18.646;2024-02-21T04:43:40;100649.53;;;6.57;100.00
74218;BME280;62579;47.288;18.646;2024-02-21T04:46:06;100657.34;;;6.55;100.00
74218;BME280;62579;47.288;18.646;2024-02-21T04:48:31;100649.53;;;6.57;100.00
74218;BME280;62579;47.288;18.646;2024-02-21T04:50:57;100658.88;;;6.56;100.00
74218;BME280;62579;47.288;18.646;2024-02-21T04:53:22;100649.22;;;6.55;100.00
74218;BME280;62579;47.288;18.646;2024-02-21T04:55:47;100652.41;;;6.53;100.00
74218;BME280;62579;47.288;18.646;2024-02-21T04:58:13;100645.59;;;6.49;100.00
74218;BME280;62579;47.288;18.646;2024-02-21T05:00:38;100655.69;;;6.57;100.00
74218;BME280;62579;47.288;18.646;2024-02-21T05:03:04;100649.38;;;6.51;100.00
74218;BME280;62579;47.288;18.646;2024-02-21T05:05:29;100656.88;;;6.56;100.00
74218;BME280;62579;47.288;18.646;2024-02-21T05:07:54;100659.88;;;6.49;100.00
74218;BME280;62579;47.288;18.646;2024-02-21T05:10:20;100651.03;;;6.49;100.00
74218;BME280;62579;47.288;18.646;2024-02-21T05:12:46;100653.13;;;6.45;100.00
74218;BME280;62579;47.288;18.646;2024-02-21T05:15:11;100659.84;;;6.40;100.00
74218;BME280;62579;47.288;18.646;2024-02-21T05:17:36;100651.63;;;6.44;100.00
74218;BME280;62579;47.288;18.646;2024-02-21T05:20:02;100647.41;;;6.43;100.00
74218;BME280;62579;47.288;18.646;2024-02-21T05:22:28;100651.44;;;6.38;100.00
74218;BME280;62579;47.288;18.646;2024-02-21T05:24:54;100659.72;;;6.44;100.00
74218;BME280;62579;47.288;18.646;2024-02-21T05:27:19;100647.66;;;6.18;100.00
74218;BME280;62579;47.288;18.646;2024-02-21T05:29:44;100647.34;;;6.16;100.00
74218;BME280;62579;47.288;18.646;2024-02-21T05:32:10;100653.53;;;6.25;100.00
74218;BME280;62579;47.288;18.646;2024-02-21T05:34:35;100647.81;;;6.23;100.00
74218;BME280;62579;47.288;18.646;2024-02-21T05:37:01;100647.53;;;6.30;100.00
74218;BME280;62579;47.288;18.646;2024-02-21T05:39:26;100649.00;;;6.22;100.00
74218;BME280;62579;47.288;18.646;2024-02-21T05:41:51;100639.22;;;6.07;100.00
74218;BME280;62579;47.288;18.646;2024-02-21T05:44:18;100653.34;;;6.20;100.00
74218;BME280;62579;47.288;18.646;2024-02-21T05:46:44;100657.25;;;6.19;100.00
74218;BME280;62579;47.288;18.646;2024-02-21T05:49:10;100663.06;;;6.08;100.00
74218;BME280;62579;47.288;18.646;2024-02-21T05:51:35;100665.00;;;5.98;100.00
74218;BME280;62579;47.288;18.646;2024-02-21T05:54:01;100670.97;;;5.93;100.00
74218;BME280;62579;47.288;18.646;2024-02-21T05:56:26;100670.84;;;5.97;100.00
74218;BME280;62579;47.288;18.646;2024-02-21T05:58:52;100676.22;;;5.88;100.00
74218;BME280;62579;47.288;18.646;2024-02-21T06:01:18;100681.81;;;5.72;100.00
74218;BME280;62579;47.288;18.646;2024-02-21T06:03:43;100686.72;;;5.64;100.00
74218;BME280;62579;47.288;18.646;2024-02-21T06:06:09;100686.56;;;5.68;100.00
74218;BME280;62579;47.288;18.646;2024-02-21T06:08:34;100689.09;;;5.62;100.00
74218;BME280;62579;47.288;18.646;2024-02-21T06:10:59;100695.31;;;5.72;100.00
74218;BME280;62579;47.288;18.646;2024-02-21T06:13:25;100692.22;;;5.82;100.00
74218;BME280;62579;47.288;18.646;2024-02-21T06:15:50;100693.22;;;5.76;100.00
74218;BME280;62579;47.288;18.646;2024-02-21T06:18:19;100701.19;;;5.79;100.00
74218;BME280;62579;47.288;18.646;2024-02-21T06:20:45;100700.22;;;5.86;100.00
74218;BME280;62579;47.288;18.646;2024-02-21T06:23:16;100693.47;;;5.90;100.00
74218;BME280;62579;47.288;18.646;2024-02-21T06:25:42;100688.59;;;6.07;100.00
74218;BME280;62579;47.288;18.646;2024-02-21T06:28:08;100693.72;;;6.14;100.00
74218;BME280;62579;47.288;18.646;2024-02-21T06:30:33;100705.00;;;6.13;100.00
74218;BME280;62579;47.288;18.646;2024-02-21T06:32:59;100702.81;;;6.29;100.00
74218;BME280;62579;47.288;18.646;2024-02-21T06:35:25;100700.41;;;6.40;100.00
74218;BME280;62579;47.288;18.646;2024-02-21T06:37:51;100711.84;;;6.44;100.00
74218;BME280;62579;47.288;18.646;2024-02-21T06:40:17;100703.62;;;6.57;100.00
74218;BME280;62579;47.288;18.646;2024-02-21T06:42:42;100706.50;;;6.72;100.00
74218;BME280;62579;47.288;18.646;2024-02-21T06:45:08;100711.63;;;6.79;100.00
74218;BME280;62579;47.288;18.646;2024-02-21T06:47:34;100706.38;;;6.84;100.00
74218;BME280;62579;47.288;18.646;2024-02-21T06:49:59;100708.66;;;6.86;100.00
74218;BME280;62579;47.288;18.646;2024-02-21T06:52:24;100702.47;;;6.94;100.00
74218;BME280;62579;47.288;18.646;2024-02-21T06:54:50;100702.16;;;6.92;100.00
74218;BME280;62579;47.288;18.646;2024-02-21T06:57:15;100713.88;;;6.89;100.00
74218;BME280;62579;47.288;18.646;2024-02-21T06:59:41;100706.84;;;6.83;100.00
74218;BME280;62579;47.288;18.646;2024-02-21T07:02:07;100711.47;;;6.82;100.00
74218;BME280;62579;47.288;18.646;2024-02-21T07:04:32;100710.56;;;6.76;100.00
74218;BME280;62579;47.288;18.646;2024-02-21T07:06:58;100703.94;;;6.68;100.00
74218;BME280;62579;47.288;18.646;2024-02-21T07:09:23;100710.69;;;6.73;100.00
74218;BME280;62579;47.288;18.646;2024-02-21T07:11:48;100710.44;;;6.80;100.00
74218;BME280;62579;47.288;18.646;2024-02-21T07:14:14;100708.00;;;6.73;100.00
74218;BME280;62579;47.288;18.646;2024-02-21T07:16:40;100711.03;;;6.84;100.00
74218;BME280;62579;47.288;18.646;2024-02-21T07:19:06;100703.22;;;6.95;100.00
74218;BME280;62579;47.288;18.646;2024-02-21T07:21:31;100701.87;;;7.08;100.00
74218;BME280;62579;47.288;18.646;2024-02-21T07:23:56;100701.28;;;7.13;99.96
74218;BME280;62579;47.288;18.646;2024-02-21T07:26:22;100699.62;;;7.34;99.94
74218;BME280;62579;47.288;18.646;2024-02-21T07:28:47;100706.38;;;7.30;99.06
74218;BME280;62579;47.288;18.646;2024-02-21T07:31:12;100700.22;;;7.47;99.40
74218;BME280;62579;47.288;18.646;2024-02-21T07:33:38;100696.84;;;7.61;98.31
74218;BME280;62579;47.288;18.646;2024-02-21T07:36:07;100705.00;;;7.52;97.86
74218;BME280;62579;47.288;18.646;2024-02-21T07:38:33;100707.25;;;7.54;96.98
74218;BME280;62579;47.288;18.646;2024-02-21T07:40:59;100702.25;;;7.70;95.98
74218;BME280;62579;47.288;18.646;2024-02-21T07:43:24;100706.03;;;7.64;96.17
74218;BME280;62579;47.288;18.646;2024-02-21T07:45:51;100705.44;;;7.69;95.83
74218;BME280;62579;47.288;18.646;2024-02-21T07:48:18;100699.97;;;7.78;95.49
74218;BME280;62579;47.288;18.646;2024-02-21T07:50:44;100704.97;;;7.61;95.93
74218;BME280;62579;47.288;18.646;2024-02-21T07:53:09;100710.53;;;7.67;95.54
74218;BME280;62579;47.288;18.646;2024-02-21T07:55:34;100702.41;;;7.76;96.48
74218;BME280;62579;47.288;18.646;2024-02-21T07:58:00;100703.12;;;7.85;97.04
74218;BME280;62579;47.288;18.646;2024-02-21T08:00:25;100700.66;;;8.06;94.97
74218;BME280;62579;47.288;18.646;2024-02-21T08:02:51;100700.78;;;8.11;96.16
74218;BME280;62579;47.288;18.646;2024-02-21T08:05:16;100698.50;;;8.28;92.67
74218;BME280;62579;47.288;18.646;2024-02-21T08:07:42;100689.28;;;8.25;93.84
74218;BME280;62579;47.288;18.646;2024-02-21T08:10:08;100679.91;;;8.35;94.72
74218;BME280;62579;47.288;18.646;2024-02-21T08:12:33;100688.81;;;8.36;93.82
74218;BME280;62579;47.288;18.646;2024-02-21T08:14:59;100688.75;;;8.45;93.08
74218;BME280;62579;47.288;18.646;2024-02-21T08:17:24;100682.62;;;8.59;92.94
74218;BME280;62579;47.288;18.646;2024-02-21T08:19:49;100686.09;;;8.60;93.38
74218;BME280;62579;47.288;18.646;2024-02-21T08:22:15;100687.47;;;8.79;93.34
74218;BME280;62579;47.288;18.646;2024-02-21T08:24:41;100690.81;;;8.97;91.85
74218;BME280;62579;47.288;18.646;2024-02-21T08:27:06;100687.28;;;9.06;91.28
74218;BME280;62579;47.288;18.646;2024-02-21T08:29:32;100687.87;;;9.25;90.56
74218;BME280;62579;47.288;18.646;2024-02-21T08:31:58;100693.59;;;9.27;88.64
74218;BME280;62579;47.288;18.646;2024-02-21T08:34:23;100697.50;;;9.26;88.34
74218;BME280;62579;47.288;18.646;2024-02-21T08:36:48;100688.16;;;9.27;86.71
74218;BME280;62579;47.288;18.646;2024-02-21T08:39:14;100692.34;;;9.13;88.35
74218;BME280;62579;47.288;18.646;2024-02-21T08:41:42;100695.94;;;9.19;88.60
74218;BME280;62579;47.288;18.646;2024-02-21T08:44:07;100698.91;;;9.21;88.05
74218;BME280;62579;47.288;18.646;2024-02-21T08:46:33;100695.63;;;9.17;85.19
74218;BME280;62579;47.288;18.646;2024-02-21T08:48:58;100689.03;;;9.09;85.81
74218;BME280;62579;47.288;18.646;2024-02-21T08:51:23;100692.06;;;9.11;85.89
74218;BME280;62579;47.288;18.646;2024-02-21T08:53:49;100690.50;;;9.34;84.78
74218;BME280;62579;47.288;18.646;2024-02-21T08:56:15;100683.78;;;9.44;85.78
74218;BME280;62579;47.288;18.646;2024-02-21T08:58:41;100687.25;;;9.59;85.63
74218;BME280;62579;47.288;18.646;2024-02-21T09:01:07;100684.72;;;9.70;83.95
74218;BME280;62579;47.288;18.646;2024-02-21T09:03:36;100686.69;;;9.70;82.51
74218;BME280;62579;47.288;18.646;2024-02-21T09:06:03;100684.91;;;9.81;82.88
74218;BME280;62579;47.288;18.646;2024-02-21T09:08:29;100679.62;;;9.92;81.55
74218;BME280;62579;47.288;18.646;2024-02-21T09:10:54;100671.00;;;9.94;81.12
74218;BME280;62579;47.288;18.646;2024-02-21T09:13:20;100676.72;;;9.96;81.13
74218;BME280;62579;47.288;18.646;2024-02-21T09:15:45;100676.34;;;9.74;82.11
74218;BME280;62579;47.288;18.646;2024-02-21T09:18:10;100676.34;;;9.74;81.22
74218;BME280;62579;47.288;18.646;2024-02-21T09:20:36;100681.34;;;9.75;82.89
74218;BME280;62579;47.288;18.646;2024-02-21T09:23:01;100675.91;;;9.75;81.75
74218;BME280;62579;47.288;18.646;2024-02-21T09:25:27;100674.03;;;9.81;81.91
74218;BME280;62579;47.288;18.646;2024-02-21T09:27:54;100673.63;;;10.03;79.74
74218;BME280;62579;47.288;18.646;2024-02-21T09:30:20;100664.06;;;9.93;82.05
74218;BME280;62579;47.288;18.646;2024-02-21T09:32:45;100671.22;;;9.76;79.21
74218;BME280;62579;47.288;18.646;2024-02-21T09:35:11;100676.63;;;9.90;79.79
74218;BME280;62579;47.288;18.646;2024-02-21T09:37:38;100672.03;;;9.96;78.16
74218;BME280;62579;47.288;18.646;2024-02-21T09:40:03;100680.47;;;10.13;77.58
74218;BME280;62579;47.288;18.646;2024-02-21T09:42:39;100682.06;;;10.05;76.67
74218;BME280;62579;47.288;18.646;2024-02-21T09:45:08;100669.44;;;10.22;78.40
74218;BME280;62579;47.288;18.646;2024-02-21T09:47:43;100664.84;;;10.28;77.91
74218;BME280;62579;47.288;18.646;2024-02-21T09:50:09;100673.75;;;10.29;76.50
74218;BME280;62579;47.288;18.646;2024-02-21T09:52:36;100669.34;;;10.31;77.33
74218;BME280;62579;47.288;18.646;2024-02-21T09:55:02;100668.41;;;10.54;75.02
74218;BME280;62579;47.288;18.646;2024-02-21T09:57:30;100673.59;;;10.52;76.97
74218;BME280;62579;47.288;18.646;2024-02-21T09:59:57;100670.19;;;10.77;75.34
74218;BME280;62579;47.288;18.646;2024-02-21T10:02:24;100675.09;;;10.73;75.14
74218;BME280;62579;47.288;18.646;2024-02-21T10:04:49;100656.44;;;10.66;74.72
74218;BME280;62579;47.288;18.646;2024-02-21T10:07:15;100672.66;;;10.75;74.11
74218;BME280;62579;47.288;18.646;2024-02-21T10:09:40;100675.09;;;10.73;74.51
74218;BME280;62579;47.288;18.646;2024-02-21T10:12:11;100668.91;;;10.73;74.94
74218;BME280;62579;47.288;18.646;2024-02-21T10:14:37;100661.28;;;10.77;74.54
74218;BME280;62579;47.288;18.646;2024-02-21T10:17:02;100652.66;;;11.04;73.17
74218;BME280;62579;47.288;18.646;2024-02-21T10:19:30;100645.03;;;11.08;74.15
74218;BME280;62579;47.288;18.646;2024-02-21T10:24:28;100645.19;;;11.25;72.30
74218;BME280;62579;47.288;18.646;2024-02-21T10:27:04;100645.78;;;11.34;71.81
74218;BME280;62579;47.288;18.646;2024-02-21T10:29:31;100639.59;;;11.34;71.60
74218;BME280;62579;47.288;18.646;2024-02-21T10:32:10;100632.56;;;11.53;70.78
74218;BME280;62579;47.288;18.646;2024-02-21T10:34:37;100624.50;;;11.38;71.13
74218;BME280;62579;47.288;18.646;2024-02-21T10:37:07;100623.25;;;11.34;71.77
74218;BME280;62579;47.288;18.646;2024-02-21T10:39:33;100621.31;;;11.40;70.10
74218;BME280;62579;47.288;18.646;2024-02-21T10:42:00;100617.13;;;11.13;69.55
74218;BME280;62579;47.288;18.646;2024-02-21T10:44:29;100624.25;;;11.11;69.67
74218;BME280;62579;47.288;18.646;2024-02-21T10:46:56;100614.38;;;11.13;68.99
74218;BME280;62579;47.288;18.646;2024-02-21T10:49:29;100612.38;;;11.39;70.41
74218;BME280;62579;47.288;18.646;2024-02-21T10:52:17;100606.28;;;11.50;69.17
74218;BME280;62579;47.288;18.646;2024-02-21T10:55:41;100604.34;;;11.56;66.79
74218;BME280;62579;47.288;18.646;2024-02-21T10:57:57;100595.78;;;11.37;66.73
74218;BME280;62579;47.288;18.646;2024-02-21T11:00:24;100582.97;;;11.49;66.09
74218;BME280;62579;47.288;18.646;2024-02-21T11:02:56;100586.28;;;11.59;65.72
74218;BME280;62579;47.288;18.646;2024-02-21T11:05:23;100583.81;;;11.61;65.46
74218;BME280;62579;47.288;18.646;2024-02-21T11:07:49;100583.41;;;11.73;66.67
74218;BME280;62579;47.288;18.646;2024-02-21T11:10:25;100576.50;;;11.72;64.88
74218;BME280;62579;47.288;18.646;2024-02-21T11:13:08;100567.69;;;11.94;63.78
74218;BME280;62579;47.288;18.646;2024-02-21T11:15:33;100560.97;;;11.89;64.26
74218;BME280;62579;47.288;18.646;2024-02-21T11:17:59;100566.59;;;11.75;63.39
74218;BME280;62579;47.288;18.646;2024-02-21T11:20:37;100563.97;;;11.60;64.43
74218;BME280;62579;47.288;18.646;2024-02-21T11:23:03;100549.16;;;11.67;63.74
74218;BME280;62579;47.288;18.646;2024-02-21T11:25:29;100555.34;;;11.67;63.51
74218;BME280;62579;47.288;18.646;2024-02-21T11:28:03;100549.22;;;11.72;62.87
74218;BME280;62579;47.288;18.646;2024-02-21T11:30:35;100549.97;;;11.78;62.39
74218;BME280;62579;47.288;18.646;2024-02-21T11:33:02;100546.16;;;12.01;62.85
74218;BME280;62579;47.288;18.646;2024-02-21T11:35:31;100543.44;;;12.01;63.35
74218;BME280;62579;47.288;18.646;2024-02-21T11:38:07;100533.09;;;12.22;60.01
74218;BME280;62579;47.288;18.646;2024-02-21T11:40:34;100530.59;;;12.19;61.37
74218;BME280;62579;47.288;18.646;2024-02-21T11:42:59;100526.41;;;12.23;61.24
74218;BME280;62579;47.288;18.646;2024-02-21T11:45:25;100519.94;;;12.15;62.70
74218;BME280;62579;47.288;18.646;2024-02-21T11:47:52;100528.37;;;12.17;62.12
74218;BME280;62579;47.288;18.646;2024-02-21T11:50:17;100528.06;;;12.04;63.42
74218;BME280;62579;47.288;18.646;2024-02-21T11:52:43;100537.03;;;12.16;61.55
74218;BME280;62579;47.288;18.646;2024-02-21T11:55:08;100527.53;;;12.00;62.29
74218;BME280;62579;47.288;18.646;2024-02-21T11:57:34;100530.47;;;11.91;62.53
74218;BME280;62579;47.288;18.646;2024-02-21T12:00:14;100523.25;;;11.82;63.97
74218;BME280;62579;47.288;18.646;2024-02-21T12:02:40;100527.19;;;11.81;63.37
74218;BME280;62579;47.288;18.646;2024-02-21T12:05:06;100524.44;;;11.76;63.32
74218;BME280;62579;47.288;18.646;2024-02-21T12:07:32;100524.34;;;11.65;62.65
74218;BME280;62579;47.288;18.646;2024-02-21T12:10:00;100525.66;;;11.69;62.90
74218;BME280;62579;47.288;18.646;2024-02-21T12:12:26;100522.09;;;11.63;63.16
74218;BME280;62579;47.288;18.646;2024-02-21T12:14:56;100513.22;;;11.68;63.59
74218;BME280;62579;47.288;18.646;2024-02-21T12:17:23;100515.41;;;11.59;63.97
74218;BME280;62579;47.288;18.646;2024-02-21T12:19:50;100517.84;;;11.57;64.30
74218;BME280;62579;47.288;18.646;2024-02-21T12:22:18;100512.28;;;11.71;64.06
74218;BME280;62579;47.288;18.646;2024-02-21T12:24:44;100513.72;;;11.67;65.16
74218;BME280;62579;47.288;18.646;2024-02-21T12:27:13;100517.53;;;11.80;64.89
74218;BME280;62579;47.288;18.646;2024-02-21T12:29:38;100510.56;;;11.79;64.05
74218;BME280;62579;47.288;18.646;2024-02-21T12:32:03;100509.13;;;11.89;65.24
74218;BME280;62579;47.288;18.646;2024-02-21T12:34:29;100496.50;;;11.92;64.50
74218;BME280;62579;47.288;18.646;2024-02-21T12:36:57;100502.16;;;11.77;63.09
74218;BME280;62579;47.288;18.646;2024-02-21T12:39:22;100510.59;;;11.85;63.14
74218;BME280;62579;47.288;18.646;2024-02-21T12:41:50;100494.50;;;11.87;64.00